sensor_id;sensor_type;location;lat;lon;timestamp;P1;durP1;ratioP1;P2;durP2;ratioP2
61702;SDS011;47622;47.726;3.298;2023-11-21T00:01:16;11.38;;;2.05;;
61702;SDS011;47622;47.726;3.298;2023-11-21T00:03:42;3.33;;;1.70;;
61702;SDS011;47622;47.726;3.298;2023-11-21T00:06:08;9.18;;;2.08;;
61702;SDS011;47622;47.726;3.298;2023-11-21T00:08:34;7.65;;;2.30;;
61702;SDS011;47622;47.726;3.298;2023-11-21T00:11:00;13.00;;;2.70;;
61702;SDS011;47622;47.726;3.298;2023-11-21T00:13:26;10.93;;;2.40;;
61702;SDS011;47622;47.726;3.298;2023-11-21T00:15:52;8.93;;;2.20;;
61702;SDS011;47622;47.726;3.298;2023-11-21T00:18:17;18.23;;;2.70;;
61702;SDS011;47622;47.726;3.298;2023-11-21T00:20:43;11.65;;;2.75;;
61702;SDS011;47622;47.726;3.298;2023-11-21T00:23:09;9.07;;;2.45;;
61702;SDS011;47622;47.726;3.298;2023-11-21T00:25:34;10.43;;;2.63;;
61702;SDS011;47622;47.726;3.298;2023-11-21T00:28:00;10.38;;;2.38;;
61702;SDS011;47622;47.726;3.298;2023-11-21T00:30:27;7.47;;;2.25;;
61702;SDS011;47622;47.726;3.298;2023-11-21T00:32:54;10.10;;;2.28;;
61702;SDS011;47622;47.726;3.298;2023-11-21T00:35:19;11.35;;;2.53;;
61702;SDS011;47622;47.726;3.298;2023-11-21T00:37:45;10.85;;;2.85;;
61702;SDS011;47622;47.726;3.298;2023-11-21T00:40:12;11.32;;;2.72;;
61702;SDS011;47622;47.726;3.298;2023-11-21T00:42:38;8.55;;;2.40;;
61702;SDS011;47622;47.726;3.298;2023-11-21T00:45:04;9.70;;;2.25;;
61702;SDS011;47622;47.726;3.298;2023-11-21T00:47:31;10.23;;;2.67;;
61702;SDS011;47622;47.726;3.298;2023-11-21T00:49:56;10.05;;;2.20;;
61702;SDS011;47622;47.726;3.298;2023-11-21T00:52:22;10.50;;;2.83;;
61702;SDS011;47622;47.726;3.298;2023-11-21T00:54:47;6.93;;;2.22;;
61702;SDS011;47622;47.726;3.298;2023-11-21T00:57:13;14.70;;;2.67;;
61702;SDS011;47622;47.726;3.298;2023-11-21T00:59:39;10.88;;;2.40;;
61702;SDS011;47622;47.726;3.298;2023-11-21T01:02:05;7.20;;;2.28;;
61702;SDS011;47622;47.726;3.298;2023-11-21T01:04:30;9.18;;;2.40;;
61702;SDS011;47622;47.726;3.298;2023-11-21T01:06:57;9.43;;;2.28;;
61702;SDS011;47622;47.726;3.298;2023-11-21T01:09:23;6.63;;;2.17;;
61702;SDS011;47622;47.726;3.298;2023-11-21T01:11:49;7.97;;;2.88;;
61702;SDS011;47622;47.726;3.298;2023-11-21T01:14:14;11.32;;;2.05;;
61702;SDS011;47622;47.726;3.298;2023-11-21T01:16:40;11.63;;;2.08;;
61702;SDS011;47622;47.726;3.298;2023-11-21T01:19:06;11.90;;;2.55;;
61702;SDS011;47622;47.726;3.298;2023-11-21T01:21:31;9.32;;;2.38;;
61702;SDS011;47622;47.726;3.298;2023-11-21T01:23:57;8.88;;;3.08;;
61702;SDS011;47622;47.726;3.298;2023-11-21T01:26:22;8.57;;;2.78;;
61702;SDS011;47622;47.726;3.298;2023-11-21T01:28:49;7.22;;;2.55;;
61702;SDS011;47622;47.726;3.298;2023-11-21T01:31:15;8.98;;;2.72;;
61702;SDS011;47622;47.726;3.298;2023-11-21T01:33:41;5.85;;;2.20;;
61702;SDS011;47622;47.726;3.298;2023-11-21T01:36:29;5.10;;;2.22;;
61702;SDS011;47622;47.726;3.298;2023-11-21T01:38:57;5.65;;;2.10;;
61702;SDS011;47622;47.726;3.298;2023-11-21T01:41:25;9.63;;;2.40;;
61702;SDS011;47622;47.726;3.298;2023-11-21T01:43:52;8.88;;;2.30;;
61702;SDS011;47622;47.726;3.298;2023-11-21T01:46:19;13.68;;;3.20;;
61702;SDS011;47622;47.726;3.298;2023-11-21T01:48:45;9.02;;;2.70;;
61702;SDS011;47622;47.726;3.298;2023-11-21T01:51:12;7.43;;;2.78;;
61702;SDS011;47622;47.726;3.298;2023-11-21T01:53:38;8.40;;;2.30;;
61702;SDS011;47622;47.726;3.298;2023-11-21T01:56:05;6.20;;;2.33;;
61702;SDS011;47622;47.726;3.298;2023-11-21T01:58:33;6.38;;;3.03;;
61702;SDS011;47622;47.726;3.298;2023-11-21T02:00:59;13.48;;;3.10;;
61702;SDS011;47622;47.726;3.298;2023-11-21T02:03:24;11.38;;;4.13;;
61702;SDS011;47622;47.726;3.298;2023-11-21T02:05:51;12.02;;;3.15;;
61702;SDS011;47622;47.726;3.298;2023-11-21T02:08:18;8.70;;;2.85;;
61702;SDS011;47622;47.726;3.298;2023-11-21T02:10:44;8.45;;;3.35;;
61702;SDS011;47622;47.726;3.298;2023-11-21T02:13:12;13.43;;;3.35;;
61702;SDS011;47622;47.726;3.298;2023-11-21T02:15:38;5.97;;;3.00;;
61702;SDS011;47622;47.726;3.298;2023-11-21T02:18:04;6.68;;;2.75;;
61702;SDS011;47622;47.726;3.298;2023-11-21T02:20:31;8.80;;;3.13;;
61702;SDS011;47622;47.726;3.298;2023-11-21T02:22:59;8.32;;;3.40;;
61702;SDS011;47622;47.726;3.298;2023-11-21T02:25:27;8.23;;;2.97;;
61702;SDS011;47622;47.726;3.298;2023-11-21T02:27:54;10.73;;;3.65;;
61702;SDS011;47622;47.726;3.298;2023-11-21T02:30:20;9.45;;;3.30;;
61702;SDS011;47622;47.726;3.298;2023-11-21T02:32:47;13.00;;;4.20;;
61702;SDS011;47622;47.726;3.298;2023-11-21T02:35:13;14.43;;;3.92;;
61702;SDS011;47622;47.726;3.298;2023-11-21T02:37:41;8.82;;;4.00;;
61702;SDS011;47622;47.726;3.298;2023-11-21T02:40:08;11.00;;;4.13;;
61702;SDS011;47622;47.726;3.298;2023-11-21T02:42:37;7.55;;;4.00;;
61702;SDS011;47622;47.726;3.298;2023-11-21T02:45:04;13.43;;;4.85;;
61702;SDS011;47622;47.726;3.298;2023-11-21T02:47:31;9.88;;;4.70;;
61702;SDS011;47622;47.726;3.298;2023-11-21T02:49:56;7.32;;;3.78;;
61702;SDS011;47622;47.726;3.298;2023-11-21T02:52:22;9.02;;;4.00;;
61702;SDS011;47622;47.726;3.298;2023-11-21T02:54:47;6.93;;;3.30;;
61702;SDS011;47622;47.726;3.298;2023-11-21T02:57:15;9.27;;;3.85;;
61702;SDS011;47622;47.726;3.298;2023-11-21T02:59:40;10.70;;;4.10;;
61702;SDS011;47622;47.726;3.298;2023-11-21T03:02:06;12.23;;;4.63;;
61702;SDS011;47622;47.726;3.298;2023-11-21T03:04:34;9.88;;;4.43;;
61702;SDS011;47622;47.726;3.298;2023-11-21T03:07:00;11.23;;;4.50;;
61702;SDS011;47622;47.726;3.298;2023-11-21T03:09:26;12.70;;;4.55;;
61702;SDS011;47622;47.726;3.298;2023-11-21T03:11:52;11.63;;;4.50;;
61702;SDS011;47622;47.726;3.298;2023-11-21T03:14:21;12.45;;;4.70;;
61702;SDS011;47622;47.726;3.298;2023-11-21T03:16:47;10.27;;;4.45;;
61702;SDS011;47622;47.726;3.298;2023-11-21T03:19:14;10.20;;;4.60;;
61702;SDS011;47622;47.726;3.298;2023-11-21T03:21:40;11.73;;;4.85;;
61702;SDS011;47622;47.726;3.298;2023-11-21T03:24:05;10.60;;;4.50;;
61702;SDS011;47622;47.726;3.298;2023-11-21T03:26:32;11.80;;;4.88;;
61702;SDS011;47622;47.726;3.298;2023-11-21T03:28:58;13.60;;;6.28;;
61702;SDS011;47622;47.726;3.298;2023-11-21T03:31:23;5.80;;;4.25;;
61702;SDS011;47622;47.726;3.298;2023-11-21T03:33:49;7.18;;;4.57;;
61702;SDS011;47622;47.726;3.298;2023-11-21T03:36:14;13.60;;;5.05;;
61702;SDS011;47622;47.726;3.298;2023-11-21T03:38:40;13.23;;;4.90;;
61702;SDS011;47622;47.726;3.298;2023-11-21T03:41:06;10.38;;;5.05;;
61702;SDS011;47622;47.726;3.298;2023-11-21T03:43:35;14.35;;;5.45;;
61702;SDS011;47622;47.726;3.298;2023-11-21T03:46:02;18.08;;;5.22;;
61702;SDS011;47622;47.726;3.298;2023-11-21T03:48:27;9.90;;;5.47;;
61702;SDS011;47622;47.726;3.298;2023-11-21T03:50:53;10.57;;;5.55;;
61702;SDS011;47622;47.726;3.298;2023-11-21T03:53:18;10.23;;;5.60;;
61702;SDS011;47622;47.726;3.298;2023-11-21T03:55:44;11.50;;;5.95;;
61702;SDS011;47622;47.726;3.298;2023-11-21T03:58:09;9.70;;;5.32;;
61702;SDS011;47622;47.726;3.298;2023-11-21T04:00:35;12.73;;;5.40;;
61702;SDS011;47622;47.726;3.298;2023-11-21T04:03:00;13.68;;;5.60;;
61702;SDS011;47622;47.726;3.298;2023-11-21T04:05:26;11.07;;;5.82;;
61702;SDS011;47622;47.726;3.298;2023-11-21T04:07:51;10.73;;;5.20;;
61702;SDS011;47622;47.726;3.298;2023-11-21T04:10:17;17.15;;;5.88;;
61702;SDS011;47622;47.726;3.298;2023-11-21T04:12:43;10.55;;;5.80;;
61702;SDS011;47622;47.726;3.298;2023-11-21T04:15:10;17.02;;;5.65;;
61702;SDS011;47622;47.726;3.298;2023-11-21T04:17:37;11.73;;;5.30;;
61702;SDS011;47622;47.726;3.298;2023-11-21T04:20:04;20.92;;;7.53;;
61702;SDS011;47622;47.726;3.298;2023-11-21T04:22:33;13.38;;;5.15;;
61702;SDS011;47622;47.726;3.298;2023-11-21T04:25:01;10.68;;;5.72;;
61702;SDS011;47622;47.726;3.298;2023-11-21T04:27:27;14.25;;;5.90;;
61702;SDS011;47622;47.726;3.298;2023-11-21T04:29:52;10.63;;;5.60;;
61702;SDS011;47622;47.726;3.298;2023-11-21T04:32:18;16.27;;;5.22;;
61702;SDS011;47622;47.726;3.298;2023-11-21T04:34:43;10.63;;;5.25;;
61702;SDS011;47622;47.726;3.298;2023-11-21T04:37:09;10.13;;;4.97;;
61702;SDS011;47622;47.726;3.298;2023-11-21T04:39:35;14.35;;;5.68;;
61702;SDS011;47622;47.726;3.298;2023-11-21T04:42:01;11.05;;;5.25;;
61702;SDS011;47622;47.726;3.298;2023-11-21T04:44:27;10.80;;;5.68;;
61702;SDS011;47622;47.726;3.298;2023-11-21T04:46:52;14.57;;;6.00;;
61702;SDS011;47622;47.726;3.298;2023-11-21T04:49:18;14.32;;;5.53;;
61702;SDS011;47622;47.726;3.298;2023-11-21T04:51:43;18.00;;;6.07;;
61702;SDS011;47622;47.726;3.298;2023-11-21T04:54:09;15.60;;;7.00;;
61702;SDS011;47622;47.726;3.298;2023-11-21T04:56:35;12.45;;;6.47;;
61702;SDS011;47622;47.726;3.298;2023-11-21T04:59:01;17.75;;;6.63;;
61702;SDS011;47622;47.726;3.298;2023-11-21T05:01:26;19.77;;;7.55;;
61702;SDS011;47622;47.726;3.298;2023-11-21T05:03:52;15.15;;;6.72;;
61702;SDS011;47622;47.726;3.298;2023-11-21T05:06:18;17.85;;;7.20;;
61702;SDS011;47622;47.726;3.298;2023-11-21T05:08:43;15.20;;;6.68;;
61702;SDS011;47622;47.726;3.298;2023-11-21T05:11:08;15.00;;;6.75;;
61702;SDS011;47622;47.726;3.298;2023-11-21T05:13:35;21.77;;;7.13;;
61702;SDS011;47622;47.726;3.298;2023-11-21T05:16:01;13.07;;;6.10;;
61702;SDS011;47622;47.726;3.298;2023-11-21T05:18:29;11.85;;;6.68;;
61702;SDS011;47622;47.726;3.298;2023-11-21T05:20:55;11.82;;;6.90;;
61702;SDS011;47622;47.726;3.298;2023-11-21T05:23:21;17.75;;;6.03;;
61702;SDS011;47622;47.726;3.298;2023-11-21T05:25:47;14.02;;;6.65;;
61702;SDS011;47622;47.726;3.298;2023-11-21T05:28:13;12.63;;;6.13;;
61702;SDS011;47622;47.726;3.298;2023-11-21T05:30:38;14.95;;;6.22;;
61702;SDS011;47622;47.726;3.298;2023-11-21T05:33:04;12.85;;;6.25;;
61702;SDS011;47622;47.726;3.298;2023-11-21T05:35:30;14.50;;;6.47;;
61702;SDS011;47622;47.726;3.298;2023-11-21T05:37:56;15.18;;;6.85;;
61702;SDS011;47622;47.726;3.298;2023-11-21T05:40:22;13.68;;;6.55;;
61702;SDS011;47622;47.726;3.298;2023-11-21T05:42:48;15.45;;;6.03;;
61702;SDS011;47622;47.726;3.298;2023-11-21T05:45:14;12.25;;;6.90;;
61702;SDS011;47622;47.726;3.298;2023-11-21T05:47:44;16.48;;;7.40;;
61702;SDS011;47622;47.726;3.298;2023-11-21T05:50:11;14.40;;;6.82;;
61702;SDS011;47622;47.726;3.298;2023-11-21T05:52:42;13.65;;;7.18;;
61702;SDS011;47622;47.726;3.298;2023-11-21T05:55:09;17.08;;;7.30;;
61702;SDS011;47622;47.726;3.298;2023-11-21T05:57:38;12.65;;;6.55;;
61702;SDS011;47622;47.726;3.298;2023-11-21T06:02:39;13.07;;;7.20;;
61702;SDS011;47622;47.726;3.298;2023-11-21T06:05:09;18.15;;;7.10;;
61702;SDS011;47622;47.726;3.298;2023-11-21T06:07:36;16.08;;;6.95;;
61702;SDS011;47622;47.726;3.298;2023-11-21T06:10:03;15.23;;;7.18;;
61702;SDS011;47622;47.726;3.298;2023-11-21T06:12:32;19.30;;;7.60;;
61702;SDS011;47622;47.726;3.298;2023-11-21T06:15:01;12.32;;;6.80;;
61702;SDS011;47622;47.726;3.298;2023-11-21T06:17:30;18.45;;;7.25;;
61702;SDS011;47622;47.726;3.298;2023-11-21T06:19:56;19.05;;;7.45;;
61702;SDS011;47622;47.726;3.298;2023-11-21T06:22:22;17.85;;;7.35;;
61702;SDS011;47622;47.726;3.298;2023-11-21T06:24:47;13.38;;;6.80;;
61702;SDS011;47622;47.726;3.298;2023-11-21T06:27:13;14.45;;;7.00;;
61702;SDS011;47622;47.726;3.298;2023-11-21T06:29:38;15.07;;;7.10;;
61702;SDS011;47622;47.726;3.298;2023-11-21T06:32:04;17.40;;;7.22;;
61702;SDS011;47622;47.726;3.298;2023-11-21T06:34:30;13.57;;;7.25;;
61702;SDS011;47622;47.726;3.298;2023-11-21T06:36:56;16.65;;;7.43;;
61702;SDS011;47622;47.726;3.298;2023-11-21T06:39:21;16.80;;;7.15;;
61702;SDS011;47622;47.726;3.298;2023-11-21T06:41:49;16.95;;;6.97;;
61702;SDS011;47622;47.726;3.298;2023-11-21T06:44:15;17.15;;;7.35;;
61702;SDS011;47622;47.726;3.298;2023-11-21T06:46:40;12.93;;;7.18;;
61702;SDS011;47622;47.726;3.298;2023-11-21T06:49:07;12.88;;;6.22;;
61702;SDS011;47622;47.726;3.298;2023-11-21T06:51:33;14.13;;;6.45;;
61702;SDS011;47622;47.726;3.298;2023-11-21T06:53:59;12.55;;;7.68;;
61702;SDS011;47622;47.726;3.298;2023-11-21T06:56:24;14.60;;;7.05;;
61702;SDS011;47622;47.726;3.298;2023-11-21T06:58:50;14.43;;;7.75;;
61702;SDS011;47622;47.726;3.298;2023-11-21T07:01:19;14.82;;;7.18;;
61702;SDS011;47622;47.726;3.298;2023-11-21T07:03:44;12.07;;;7.20;;
61702;SDS011;47622;47.726;3.298;2023-11-21T07:06:10;12.25;;;6.68;;
61702;SDS011;47622;47.726;3.298;2023-11-21T07:08:36;13.43;;;7.38;;
61702;SDS011;47622;47.726;3.298;2023-11-21T07:11:02;17.08;;;7.50;;
61702;SDS011;47622;47.726;3.298;2023-11-21T07:13:29;15.00;;;7.95;;
61702;SDS011;47622;47.726;3.298;2023-11-21T07:15:55;16.02;;;7.65;;
61702;SDS011;47622;47.726;3.298;2023-11-21T07:18:20;12.70;;;7.05;;
61702;SDS011;47622;47.726;3.298;2023-11-21T07:20:46;14.05;;;7.03;;
61702;SDS011;47622;47.726;3.298;2023-11-21T07:23:11;12.07;;;6.70;;
61702;SDS011;47622;47.726;3.298;2023-11-21T07:25:37;10.73;;;6.07;;
61702;SDS011;47622;47.726;3.298;2023-11-21T07:28:02;14.98;;;6.40;;
61702;SDS011;47622;47.726;3.298;2023-11-21T07:30:28;13.55;;;6.88;;
61702;SDS011;47622;47.726;3.298;2023-11-21T07:32:53;13.70;;;6.45;;
61702;SDS011;47622;47.726;3.298;2023-11-21T07:35:19;10.95;;;6.43;;
61702;SDS011;47622;47.726;3.298;2023-11-21T07:37:44;9.75;;;5.93;;
61702;SDS011;47622;47.726;3.298;2023-11-21T07:40:11;13.68;;;6.35;;
61702;SDS011;47622;47.726;3.298;2023-11-21T07:42:38;10.88;;;6.40;;
61702;SDS011;47622;47.726;3.298;2023-11-21T07:45:04;9.43;;;6.15;;
61702;SDS011;47622;47.726;3.298;2023-11-21T07:47:32;14.55;;;7.43;;
61702;SDS011;47622;47.726;3.298;2023-11-21T07:49:59;13.73;;;6.38;;
61702;SDS011;47622;47.726;3.298;2023-11-21T07:52:28;15.73;;;7.13;;
61702;SDS011;47622;47.726;3.298;2023-11-21T07:54:53;14.32;;;7.40;;
61702;SDS011;47622;47.726;3.298;2023-11-21T07:57:18;15.45;;;7.95;;
61702;SDS011;47622;47.726;3.298;2023-11-21T07:59:44;13.25;;;7.25;;
61702;SDS011;47622;47.726;3.298;2023-11-21T08:02:09;13.15;;;7.95;;
61702;SDS011;47622;47.726;3.298;2023-11-21T08:04:35;15.13;;;7.68;;
61702;SDS011;47622;47.726;3.298;2023-11-21T08:07:01;14.27;;;8.18;;
61702;SDS011;47622;47.726;3.298;2023-11-21T08:09:27;15.50;;;8.13;;
61702;SDS011;47622;47.726;3.298;2023-11-21T08:11:52;14.52;;;8.00;;
61702;SDS011;47622;47.726;3.298;2023-11-21T08:14:18;11.45;;;7.40;;
61702;SDS011;47622;47.726;3.298;2023-11-21T08:16:45;14.85;;;7.50;;
61702;SDS011;47622;47.726;3.298;2023-11-21T08:19:11;15.10;;;7.68;;
61702;SDS011;47622;47.726;3.298;2023-11-21T08:21:36;19.40;;;8.73;;
61702;SDS011;47622;47.726;3.298;2023-11-21T08:24:04;13.20;;;7.50;;
61702;SDS011;47622;47.726;3.298;2023-11-21T08:26:36;17.10;;;9.50;;
61702;SDS011;47622;47.726;3.298;2023-11-21T08:29:02;17.88;;;8.40;;
61702;SDS011;47622;47.726;3.298;2023-11-21T08:31:27;19.45;;;8.35;;
61702;SDS011;47622;47.726;3.298;2023-11-21T08:33:54;18.85;;;9.10;;
61702;SDS011;47622;47.726;3.298;2023-11-21T08:36:21;14.75;;;8.27;;
61702;SDS011;47622;47.726;3.298;2023-11-21T08:38:49;14.00;;;8.05;;
61702;SDS011;47622;47.726;3.298;2023-11-21T08:41:17;17.17;;;8.80;;
61702;SDS011;47622;47.726;3.298;2023-11-21T08:43:43;17.63;;;8.02;;
61702;SDS011;47622;47.726;3.298;2023-11-21T08:46:09;17.60;;;8.23;;
61702;SDS011;47622;47.726;3.298;2023-11-21T08:48:36;15.60;;;8.68;;
61702;SDS011;47622;47.726;3.298;2023-11-21T08:51:01;20.02;;;8.52;;
61702;SDS011;47622;47.726;3.298;2023-11-21T08:53:28;13.63;;;8.20;;
61702;SDS011;47622;47.726;3.298;2023-11-21T08:55:54;18.67;;;9.43;;
61702;SDS011;47622;47.726;3.298;2023-11-21T08:58:20;19.58;;;7.50;;
61702;SDS011;47622;47.726;3.298;2023-11-21T09:00:45;15.57;;;8.90;;
61702;SDS011;47622;47.726;3.298;2023-11-21T09:03:11;18.73;;;9.00;;
61702;SDS011;47622;47.726;3.298;2023-11-21T09:05:38;13.45;;;8.13;;
61702;SDS011;47622;47.726;3.298;2023-11-21T09:08:04;17.63;;;8.52;;
61702;SDS011;47622;47.726;3.298;2023-11-21T09:10:30;15.15;;;7.82;;
61702;SDS011;47622;47.726;3.298;2023-11-21T09:12:56;16.55;;;7.97;;
61702;SDS011;47622;47.726;3.298;2023-11-21T09:15:21;14.40;;;7.43;;
61702;SDS011;47622;47.726;3.298;2023-11-21T09:17:47;16.17;;;7.75;;
61702;SDS011;47622;47.726;3.298;2023-11-21T09:20:13;15.23;;;7.68;;
61702;SDS011;47622;47.726;3.298;2023-11-21T09:22:40;14.95;;;7.40;;
61702;SDS011;47622;47.726;3.298;2023-11-21T09:25:05;16.67;;;7.82;;
61702;SDS011;47622;47.726;3.298;2023-11-21T09:27:33;16.27;;;7.63;;
61702;SDS011;47622;47.726;3.298;2023-11-21T09:30:01;15.32;;;7.60;;
61702;SDS011;47622;47.726;3.298;2023-11-21T09:32:27;12.93;;;6.82;;
61702;SDS011;47622;47.726;3.298;2023-11-21T09:34:52;12.10;;;7.00;;
61702;SDS011;47622;47.726;3.298;2023-11-21T09:37:23;14.05;;;6.85;;
61702;SDS011;47622;47.726;3.298;2023-11-21T09:39:48;13.43;;;7.20;;
61702;SDS011;47622;47.726;3.298;2023-11-21T09:42:19;16.85;;;6.85;;
61702;SDS011;47622;47.726;3.298;2023-11-21T09:47:29;14.20;;;6.65;;
61702;SDS011;47622;47.726;3.298;2023-11-21T09:49:56;11.93;;;6.82;;
61702;SDS011;47622;47.726;3.298;2023-11-21T09:52:24;14.50;;;6.35;;
61702;SDS011;47622;47.726;3.298;2023-11-21T09:54:52;11.80;;;6.60;;
61702;SDS011;47622;47.726;3.298;2023-11-21T09:57:25;12.07;;;6.72;;
61702;SDS011;47622;47.726;3.298;2023-11-21T09:59:54;12.55;;;5.97;;
61702;SDS011;47622;47.726;3.298;2023-11-21T10:02:27;13.65;;;6.60;;
61702;SDS011;47622;47.726;3.298;2023-11-21T10:04:58;18.40;;;6.82;;
61702;SDS011;47622;47.726;3.298;2023-11-21T10:07:25;10.07;;;6.40;;
61702;SDS011;47622;47.726;3.298;2023-11-21T10:09:52;15.57;;;6.45;;
61702;SDS011;47622;47.726;3.298;2023-11-21T10:12:19;12.13;;;5.90;;
61702;SDS011;47622;47.726;3.298;2023-11-21T10:14:48;13.82;;;6.50;;
61702;SDS011;47622;47.726;3.298;2023-11-21T10:17:14;14.23;;;5.95;;
61702;SDS011;47622;47.726;3.298;2023-11-21T10:19:43;11.07;;;5.57;;
61702;SDS011;47622;47.726;3.298;2023-11-21T10:22:12;12.45;;;5.60;;
61702;SDS011;47622;47.726;3.298;2023-11-21T10:24:40;13.82;;;5.90;;
61702;SDS011;47622;47.726;3.298;2023-11-21T10:27:05;16.48;;;6.90;;
61702;SDS011;47622;47.726;3.298;2023-11-21T10:29:31;13.13;;;6.20;;
61702;SDS011;47622;47.726;3.298;2023-11-21T10:32:01;10.27;;;5.60;;
61702;SDS011;47622;47.726;3.298;2023-11-21T10:34:27;12.32;;;5.60;;
61702;SDS011;47622;47.726;3.298;2023-11-21T10:36:53;9.00;;;5.20;;
61702;SDS011;47622;47.726;3.298;2023-11-21T10:39:19;16.15;;;6.28;;
61702;SDS011;47622;47.726;3.298;2023-11-21T10:41:48;14.35;;;6.68;;
61702;SDS011;47622;47.726;3.298;2023-11-21T10:44:14;14.10;;;5.10;;
61702;SDS011;47622;47.726;3.298;2023-11-21T10:46:49;11.32;;;5.00;;
61702;SDS011;47622;47.726;3.298;2023-11-21T10:49:20;12.80;;;5.15;;
61702;SDS011;47622;47.726;3.298;2023-11-21T10:51:46;15.05;;;4.93;;
61702;SDS011;47622;47.726;3.298;2023-11-21T10:54:17;17.23;;;5.32;;
61702;SDS011;47622;47.726;3.298;2023-11-21T10:56:43;10.68;;;5.65;;
61702;SDS011;47622;47.726;3.298;2023-11-21T10:59:11;9.60;;;4.63;;
61702;SDS011;47622;47.726;3.298;2023-11-21T11:01:41;7.97;;;4.30;;
61702;SDS011;47622;47.726;3.298;2023-11-21T11:04:09;10.63;;;5.25;;
61702;SDS011;47622;47.726;3.298;2023-11-21T11:06:45;8.55;;;5.10;;
61702;SDS011;47622;47.726;3.298;2023-11-21T11:09:14;13.13;;;5.53;;
61702;SDS011;47622;47.726;3.298;2023-11-21T11:11:41;13.50;;;5.32;;
61702;SDS011;47622;47.726;3.298;2023-11-21T11:14:10;8.43;;;5.13;;
61702;SDS011;47622;47.726;3.298;2023-11-21T11:16:38;9.88;;;4.47;;
61702;SDS011;47622;47.726;3.298;2023-11-21T11:19:08;13.10;;;4.90;;
61702;SDS011;47622;47.726;3.298;2023-11-21T11:21:38;7.03;;;4.32;;
61702;SDS011;47622;47.726;3.298;2023-11-21T11:33:10;10.85;;;5.15;;
61702;SDS011;47622;47.726;3.298;2023-11-21T11:35:57;10.05;;;4.40;;
61702;SDS011;47622;47.726;3.298;2023-11-21T11:38:31;13.52;;;5.18;;
61702;SDS011;47622;47.726;3.298;2023-11-21T11:41:00;9.13;;;4.82;;
61702;SDS011;47622;47.726;3.298;2023-11-21T11:43:28;12.88;;;4.97;;
61702;SDS011;47622;47.726;3.298;2023-11-21T11:45:57;8.60;;;4.53;;
61702;SDS011;47622;47.726;3.298;2023-11-21T11:48:28;12.65;;;4.80;;
61702;SDS011;47622;47.726;3.298;2023-11-21T11:51:01;9.63;;;4.80;;
61702;SDS011;47622;47.726;3.298;2023-11-21T11:53:35;9.05;;;4.70;;
61702;SDS011;47622;47.726;3.298;2023-11-21T11:58:56;7.43;;;3.70;;
61702;SDS011;47622;47.726;3.298;2023-11-21T12:01:27;8.98;;;4.15;;
61702;SDS011;47622;47.726;3.298;2023-11-21T12:06:56;15.30;;;4.53;;
61702;SDS011;47622;47.726;3.298;2023-11-21T12:09:25;9.43;;;5.43;;
61702;SDS011;47622;47.726;3.298;2023-11-21T12:11:52;9.27;;;4.32;;
61702;SDS011;47622;47.726;3.298;2023-11-21T12:14:19;12.15;;;4.22;;
61702;SDS011;47622;47.726;3.298;2023-11-21T12:16:45;7.57;;;4.05;;
61702;SDS011;47622;47.726;3.298;2023-11-21T12:19:11;9.10;;;4.20;;
61702;SDS011;47622;47.726;3.298;2023-11-21T12:21:38;7.68;;;3.95;;
61702;SDS011;47622;47.726;3.298;2023-11-21T12:24:06;5.60;;;3.70;;
61702;SDS011;47622;47.726;3.298;2023-11-21T12:26:38;6.57;;;3.97;;
61702;SDS011;47622;47.726;3.298;2023-11-21T12:29:05;8.15;;;3.63;;
61702;SDS011;47622;47.726;3.298;2023-11-21T12:31:32;7.70;;;3.60;;
61702;SDS011;47622;47.726;3.298;2023-11-21T12:33:59;6.80;;;3.40;;
61702;SDS011;47622;47.726;3.298;2023-11-21T12:36:25;6.00;;;2.90;;
61702;SDS011;47622;47.726;3.298;2023-11-21T12:38:51;5.85;;;2.60;;
61702;SDS011;47622;47.726;3.298;2023-11-21T12:41:17;6.70;;;2.60;;
61702;SDS011;47622;47.726;3.298;2023-11-21T12:43:42;5.50;;;2.17;;
61702;SDS011;47622;47.726;3.298;2023-11-21T12:46:09;4.47;;;2.47;;
61702;SDS011;47622;47.726;3.298;2023-11-21T12:48:39;8.75;;;2.45;;
61702;SDS011;47622;47.726;3.298;2023-11-21T12:51:09;6.22;;;2.67;;
61702;SDS011;47622;47.726;3.298;2023-11-21T12:53:37;5.70;;;2.45;;
61702;SDS011;47622;47.726;3.298;2023-11-21T12:56:07;6.53;;;2.88;;
61702;SDS011;47622;47.726;3.298;2023-11-21T12:58:34;8.57;;;2.65;;
61702;SDS011;47622;47.726;3.298;2023-11-21T13:01:01;6.88;;;2.67;;
61702;SDS011;47622;47.726;3.298;2023-11-21T13:03:31;5.97;;;2.70;;
61702;SDS011;47622;47.726;3.298;2023-11-21T13:05:57;5.85;;;3.00;;
61702;SDS011;47622;47.726;3.298;2023-11-21T13:08:24;7.40;;;3.08;;
61702;SDS011;47622;47.726;3.298;2023-11-21T13:10:55;5.85;;;2.90;;
61702;SDS011;47622;47.726;3.298;2023-11-21T13:13:21;6.38;;;3.03;;
61702;SDS011;47622;47.726;3.298;2023-11-21T13:15:49;5.32;;;2.83;;
61702;SDS011;47622;47.726;3.298;2023-11-21T13:18:22;2.97;;;2.22;;
61702;SDS011;47622;47.726;3.298;2023-11-21T13:20:57;3.75;;;2.30;;
61702;SDS011;47622;47.726;3.298;2023-11-21T13:23:24;6.28;;;2.08;;
61702;SDS011;47622;47.726;3.298;2023-11-21T13:25:50;6.10;;;2.50;;
61702;SDS011;47622;47.726;3.298;2023-11-21T13:28:16;4.25;;;2.30;;
61702;SDS011;47622;47.726;3.298;2023-11-21T13:30:48;4.53;;;2.30;;
61702;SDS011;47622;47.726;3.298;2023-11-21T13:33:17;3.08;;;2.10;;
61702;SDS011;47622;47.726;3.298;2023-11-21T13:35:46;5.07;;;2.10;;
61702;SDS011;47622;47.726;3.298;2023-11-21T13:38:15;3.88;;;2.03;;
61702;SDS011;47622;47.726;3.298;2023-11-21T13:40:55;5.03;;;2.08;;
61702;SDS011;47622;47.726;3.298;2023-11-21T13:43:21;2.95;;;1.90;;
61702;SDS011;47622;47.726;3.298;2023-11-21T13:45:51;2.80;;;1.77;;
61702;SDS011;47622;47.726;3.298;2023-11-21T13:48:27;4.50;;;1.60;;
61702;SDS011;47622;47.726;3.298;2023-11-21T13:50:59;3.47;;;2.05;;
61702;SDS011;47622;47.726;3.298;2023-11-21T13:53:35;6.32;;;1.88;;
61702;SDS011;47622;47.726;3.298;2023-11-21T13:56:03;4.50;;;2.03;;
61702;SDS011;47622;47.726;3.298;2023-11-21T13:58:29;5.70;;;2.03;;
61702;SDS011;47622;47.726;3.298;2023-11-21T14:01:12;4.82;;;2.30;;
61702;SDS011;47622;47.726;3.298;2023-11-21T14:04:02;2.90;;;1.85;;
61702;SDS011;47622;47.726;3.298;2023-11-21T14:06:46;4.18;;;1.85;;
61702;SDS011;47622;47.726;3.298;2023-11-21T14:09:20;3.00;;;1.73;;
61702;SDS011;47622;47.726;3.298;2023-11-21T14:11:52;4.30;;;1.88;;
61702;SDS011;47622;47.726;3.298;2023-11-21T14:14:23;6.10;;;2.10;;
61702;SDS011;47622;47.726;3.298;2023-11-21T14:16:55;3.08;;;1.88;;
61702;SDS011;47622;47.726;3.298;2023-11-21T14:19:22;3.78;;;2.08;;
61702;SDS011;47622;47.726;3.298;2023-11-21T14:21:52;3.17;;;1.92;;
61702;SDS011;47622;47.726;3.298;2023-11-21T14:24:18;2.90;;;1.95;;
61702;SDS011;47622;47.726;3.298;2023-11-21T14:26:44;3.10;;;2.03;;
61702;SDS011;47622;47.726;3.298;2023-11-21T14:29:11;3.20;;;1.90;;
61702;SDS011;47622;47.726;3.298;2023-11-21T14:31:42;5.65;;;2.03;;
61702;SDS011;47622;47.726;3.298;2023-11-21T14:34:08;4.38;;;2.15;;
61702;SDS011;47622;47.726;3.298;2023-11-21T14:36:34;2.78;;;1.50;;
61702;SDS011;47622;47.726;3.298;2023-11-21T14:39:01;2.83;;;1.63;;
61702;SDS011;47622;47.726;3.298;2023-11-21T14:41:32;2.47;;;2.00;;
61702;SDS011;47622;47.726;3.298;2023-11-21T14:44:00;3.88;;;1.80;;
61702;SDS011;47622;47.726;3.298;2023-11-21T14:46:27;1.67;;;1.50;;
61702;SDS011;47622;47.726;3.298;2023-11-21T14:48:53;3.55;;;1.60;;
61702;SDS011;47622;47.726;3.298;2023-11-21T14:51:32;2.88;;;1.60;;
61702;SDS011;47622;47.726;3.298;2023-11-21T14:54:18;2.85;;;1.60;;
61702;SDS011;47622;47.726;3.298;2023-11-21T14:56:54;4.03;;;1.95;;
61702;SDS011;47622;47.726;3.298;2023-11-21T14:59:19;2.50;;;1.73;;